Iron Mountain, MI

7:52 AM CDT on July 23, 2016 (GMT -0500)
Timberstone | | Change Station

Elev 1158 ft 45.84 °N, 88.08 °W | Updated 12 minutes ago

Clear
Clear
67.5 °F
Feels Like 67.5 °F
N
0.0
Wind Variable Wind from SSW

Today
High -- | Low -- °F
--% Chance of Precip.
Yesterday
High -- | Low -- °F
Precip. -- in
Pressure 29.99 in
Visibility 10.0 miles
Clouds Clear
Dew Point 60 °F
Humidity 78%
Rainfall 0.00 in
Snow Depth Not available.
5:25 AM 8:31 PM
Waning Gibbous, 85% visible
METAR KIMT 231154Z AUTO 36003KT 10SM CLR 18/14 A3000 RMK AO2 SLP154 T01830144 10183 20139 51003
Pressure 29.99 in
Visibility 10.0 miles
Clouds Clear
Dew Point 60 °F
Humidity 78%
Rainfall 0.00 in
Snow Depth Not available.
5:25 AM 8:31 PM
Waning Gibbous, 85% visible
METAR KIMT 231154Z AUTO 36003KT 10SM CLR 18/14 A3000 RMK AO2 SLP154 T01830144 10183 20139 51003

10-Day Weather Forecast

Almanac

Astronomy

Jul. 23, 2016 Rise Set
Actual Time
Civil Twilight
Nautical Twilight
Astronomical Twilight
Moon
Length of Visible Light
Length of Day
Tomorrow will be .
, % of the Moon is Illuminated

Today's Extremes

State Highs State Lows

Community

WunderPhotos

Upload Photos

1,926,816 photos uploaded!

WunderBlog® & News

Nearby

Air Quality

  Air Quality AQ Index Pollutant
Not available.

Snow Depth

Station Depth Elevation

Earthquake Activity

City Distance Mag. Time & Date
Minimum magnitude displayed is 2.5.

Coastal Water Temperatures

Place Temperature

Stations

Nearby Weather Stations

Station Location Temp. Windchill Dew Point Humidity Wind Precip. Elev Updated Type
                   

Watches & Warnings

There are currently no watches in effect.